createdAt,value
2022-08-17T00:00:54.973Z,17.10
2022-08-17T00:01:54.981Z,16.70
2022-08-17T00:02:54.945Z,16.90
2022-08-17T00:03:54.929Z,17.40
2022-08-17T00:04:55.091Z,16.20
2022-08-17T00:05:54.897Z,17.80
2022-08-17T00:06:54.886Z,17.70
2022-08-17T00:07:54.867Z,17.70
2022-08-17T00:08:54.852Z,17.10
2022-08-17T00:09:54.837Z,17.00
2022-08-17T00:10:54.822Z,17.00
2022-08-17T00:12:41.239Z,17.60
2022-08-17T00:12:55.158Z,17.20
2022-08-17T00:13:55.954Z,16.80
2022-08-17T00:14:54.762Z,17.70
2022-08-17T00:15:54.749Z,18.30
2022-08-17T00:16:56.812Z,17.10
2022-08-17T00:17:54.718Z,17.30
2022-08-17T00:19:06.642Z,17.60
2022-08-17T00:19:54.686Z,18.30
2022-08-17T00:20:54.672Z,17.70
2022-08-17T00:22:31.360Z,18.10
2022-08-17T00:22:54.641Z,16.40
2022-08-17T00:23:54.625Z,18.10
2022-08-17T00:24:54.612Z,17.40
2022-08-17T00:25:54.598Z,18.40
2022-08-17T00:26:54.578Z,18.30
2022-08-17T00:27:54.567Z,18.50
2022-08-17T00:28:54.550Z,17.70
2022-08-17T00:29:54.542Z,18.50
2022-08-17T00:30:54.520Z,17.60
2022-08-17T00:31:54.521Z,18.60
2022-08-17T00:33:14.482Z,18.40
2022-08-17T00:33:54.475Z,18.40
2022-08-17T00:34:54.468Z,19.40
2022-08-17T00:35:54.449Z,17.70
2022-08-17T00:36:54.486Z,17.40
2022-08-17T00:37:54.417Z,18.30
2022-08-17T00:38:54.401Z,18.40
2022-08-17T00:39:54.535Z,18.80
2022-08-17T00:40:55.928Z,18.40
2022-08-17T00:41:54.356Z,18.40
2022-08-17T00:42:54.336Z,20.40
2022-08-17T00:43:54.321Z,18.60
2022-08-17T00:44:54.307Z,19.10
2022-08-17T00:45:54.296Z,19.90
2022-08-17T00:46:54.275Z,18.90
2022-08-17T00:47:54.261Z,19.40
2022-08-17T00:48:54.245Z,19.40
2022-08-17T00:49:54.231Z,18.90
2022-08-17T00:50:54.216Z,18.80
2022-08-17T00:51:54.199Z,18.50
2022-08-17T00:52:54.183Z,19.10
2022-08-17T00:53:54.169Z,18.20
2022-08-17T00:54:54.152Z,18.60
2022-08-17T00:55:54.139Z,19.00
2022-08-17T00:56:54.124Z,19.40
2022-08-17T00:57:55.579Z,19.00
2022-08-17T00:58:54.091Z,18.70
2022-08-17T01:00:01.813Z,19.10
2022-08-17T01:00:54.119Z,18.80
2022-08-17T01:01:54.051Z,19.60
2022-08-17T01:02:54.172Z,20.40
2022-08-17T01:03:54.017Z,19.40
2022-08-17T01:04:54.001Z,19.20
2022-08-17T01:05:53.986Z,18.50
2022-08-17T01:06:53.971Z,19.30
2022-08-17T01:07:53.955Z,19.60
2022-08-17T01:08:57.773Z,20.30
2022-08-17T01:09:53.926Z,20.40
2022-08-17T01:10:59.652Z,20.40
2022-08-17T01:11:53.897Z,19.10
2022-08-17T01:12:53.880Z,19.40
2022-08-17T01:13:53.868Z,20.10
2022-08-17T01:14:53.847Z,20.20
2022-08-17T01:15:53.832Z,20.00
2022-08-17T01:16:53.817Z,19.60
2022-08-17T01:17:53.817Z,21.70
2022-08-17T01:18:53.786Z,20.00
2022-08-17T01:19:53.774Z,19.40
2022-08-17T01:20:53.757Z,19.00
2022-08-17T01:21:53.749Z,19.40
2022-08-17T01:22:53.723Z,19.40
2022-08-17T01:23:53.738Z,19.30
2022-08-17T01:24:53.704Z,19.60
2022-08-17T01:25:53.679Z,19.40
2022-08-17T01:26:53.662Z,19.70
2022-08-17T01:27:53.652Z,19.60
2022-08-17T01:28:55.817Z,19.60
2022-08-17T01:29:53.617Z,19.00
2022-08-17T01:30:57.330Z,19.70
2022-08-17T01:31:53.589Z,19.50
2022-08-17T01:32:53.574Z,19.50
2022-08-17T01:33:53.559Z,19.90
2022-08-17T01:34:53.540Z,20.50
2022-08-17T01:35:53.526Z,20.00
2022-08-17T01:36:53.513Z,20.10
2022-08-17T01:37:53.497Z,20.10
2022-08-17T01:38:53.482Z,19.00
2022-08-17T01:39:53.520Z,19.20
2022-08-17T01:40:57.524Z,19.70
2022-08-17T01:41:53.437Z,19.60
2022-08-17T01:42:53.423Z,20.40
2022-08-17T01:43:53.407Z,21.10
2022-08-17T01:44:53.386Z,19.70
2022-08-17T01:46:03.811Z,19.40
2022-08-17T01:46:53.357Z,20.70
2022-08-17T01:47:53.343Z,20.80
2022-08-17T01:48:53.330Z,20.10
2022-08-17T01:49:53.315Z,19.10
2022-08-17T01:50:53.294Z,20.30
2022-08-17T01:51:53.290Z,19.30
2022-08-17T01:52:53.265Z,20.60
2022-08-17T01:53:53.254Z,20.60
2022-08-17T01:54:53.235Z,21.40
2022-08-17T01:55:53.222Z,20.80
2022-08-17T01:56:53.203Z,21.80
2022-08-17T01:57:53.190Z,21.80
2022-08-17T01:58:53.169Z,20.80
2022-08-17T01:59:53.162Z,22.00
2022-08-17T02:01:00.662Z,22.50
2022-08-17T02:01:53.230Z,22.60
2022-08-17T02:02:53.113Z,23.20
2022-08-17T02:04:01.388Z,22.80
2022-08-17T02:04:53.086Z,22.40
2022-08-17T02:05:53.067Z,23.10
2022-08-17T02:06:54.592Z,24.00
2022-08-17T02:07:59.945Z,23.60
2022-08-17T02:09:02.566Z,23.20
2022-08-17T02:09:53.004Z,24.00
2022-08-17T02:10:52.986Z,24.20
2022-08-17T02:11:52.975Z,23.20
2022-08-17T02:12:53.111Z,23.10
2022-08-17T02:13:57.966Z,24.00
2022-08-17T02:14:52.928Z,24.70
2022-08-17T02:15:52.923Z,23.80
2022-08-17T02:16:52.898Z,25.30
2022-08-17T02:17:54.716Z,23.20
2022-08-17T02:18:52.869Z,24.50
2022-08-17T02:19:52.848Z,23.20
2022-08-17T02:20:52.836Z,23.90
2022-08-17T02:21:52.822Z,23.70
2022-08-17T02:22:52.804Z,24.10
2022-08-17T02:23:52.790Z,23.60
2022-08-17T02:24:58.875Z,24.10
2022-08-17T02:25:52.757Z,25.00
2022-08-17T02:26:52.742Z,23.80
2022-08-17T02:27:52.727Z,23.80
2022-08-17T02:28:52.713Z,24.20
2022-08-17T02:29:52.697Z,23.90
2022-08-17T02:31:01.300Z,24.30
2022-08-17T02:31:52.663Z,23.90
2022-08-17T02:32:52.651Z,25.20
2022-08-17T02:34:00.350Z,23.70
2022-08-17T02:34:52.617Z,24.30
2022-08-17T02:35:52.602Z,24.70
2022-08-17T02:36:52.591Z,25.70
2022-08-17T02:37:55.814Z,25.00
2022-08-17T02:38:52.555Z,26.00
2022-08-17T02:39:52.613Z,24.00
2022-08-17T02:40:52.527Z,24.70
2022-08-17T02:41:52.510Z,25.20
2022-08-17T02:42:52.494Z,23.30
2022-08-17T02:43:52.481Z,25.70
2022-08-17T02:44:52.463Z,24.30
2022-08-17T02:45:52.457Z,25.40
2022-08-17T02:46:52.439Z,25.00
2022-08-17T02:47:52.424Z,25.00
2022-08-17T02:48:52.401Z,24.40
2022-08-17T02:49:54.361Z,24.00
2022-08-17T02:50:52.372Z,23.80
2022-08-17T02:51:52.357Z,24.70
2022-08-17T02:53:01.462Z,24.50
2022-08-17T02:53:52.325Z,25.40
2022-08-17T02:54:52.309Z,24.00
2022-08-17T02:55:52.294Z,24.20
2022-08-17T02:56:52.280Z,24.20
2022-08-17T02:57:52.261Z,25.60
2022-08-17T02:58:52.244Z,24.20
2022-08-17T02:59:52.229Z,24.00
2022-08-17T03:00:52.215Z,24.00
2022-08-17T03:01:52.228Z,24.30
2022-08-17T03:02:52.426Z,25.10
2022-08-17T03:03:52.167Z,25.50
2022-08-17T03:04:52.152Z,25.30
2022-08-17T03:05:52.137Z,24.50
2022-08-17T03:06:52.121Z,25.50
2022-08-17T03:07:52.105Z,25.40
2022-08-17T03:08:52.089Z,25.60
2022-08-17T03:09:52.079Z,25.50
2022-08-17T03:10:52.060Z,24.50
2022-08-17T03:11:53.087Z,25.20
2022-08-17T03:12:52.170Z,26.50
2022-08-17T03:13:52.009Z,25.70
2022-08-17T03:14:51.997Z,25.60
2022-08-17T03:15:51.981Z,25.00
2022-08-17T03:16:51.968Z,26.80
2022-08-17T03:17:51.950Z,26.50
2022-08-17T03:18:51.940Z,27.10
2022-08-17T03:19:51.918Z,26.60
2022-08-17T03:20:51.921Z,27.50
2022-08-17T03:21:55.345Z,27.60
2022-08-17T03:22:53.222Z,26.70
2022-08-17T03:23:54.468Z,27.30
2022-08-17T03:24:51.842Z,27.90
2022-08-17T03:25:52.985Z,28.10
2022-08-17T03:26:51.810Z,28.30
2022-08-17T03:27:51.792Z,27.60
2022-08-17T03:28:51.778Z,28.90
2022-08-17T03:29:51.761Z,28.50
2022-08-17T03:30:51.749Z,28.10
2022-08-17T03:31:51.731Z,27.70
2022-08-17T03:32:51.996Z,30.30
2022-08-17T03:33:51.699Z,28.70
2022-08-17T03:34:51.685Z,28.10
2022-08-17T03:35:51.669Z,27.50
2022-08-17T03:36:51.657Z,28.80
2022-08-17T03:38:00.383Z,29.60
2022-08-17T03:38:51.624Z,30.30
2022-08-17T03:39:51.674Z,28.30
2022-08-17T03:40:57.892Z,28.70
2022-08-17T03:41:51.574Z,28.80
2022-08-17T03:42:51.634Z,28.30
2022-08-17T03:43:51.543Z,28.70
2022-08-17T03:44:51.528Z,28.30
2022-08-17T03:45:51.515Z,29.40
2022-08-17T03:46:51.501Z,29.50
2022-08-17T03:47:51.480Z,28.60
2022-08-17T03:48:51.465Z,28.50
2022-08-17T03:49:51.451Z,28.90
2022-08-17T03:50:51.435Z,28.70
2022-08-17T03:51:51.417Z,28.80
2022-08-17T03:52:51.943Z,30.10
2022-08-17T03:53:51.385Z,30.30
2022-08-17T03:54:51.370Z,29.90
2022-08-17T03:55:51.353Z,30.20
2022-08-17T03:56:51.342Z,29.60
2022-08-17T03:57:51.323Z,30.00
2022-08-17T03:58:51.309Z,30.20
2022-08-17T03:59:51.290Z,29.40
2022-08-17T04:00:51.278Z,30.40
2022-08-17T04:01:51.299Z,29.20
2022-08-17T04:02:51.462Z,28.10
2022-08-17T04:03:51.228Z,28.30
2022-08-17T04:04:51.360Z,29.00
2022-08-17T04:05:51.201Z,29.70
2022-08-17T04:06:51.183Z,30.00
2022-08-17T04:07:51.165Z,29.60
2022-08-17T04:08:51.152Z,29.40
2022-08-17T04:09:51.137Z,28.80
2022-08-17T04:10:51.122Z,30.40
2022-08-17T04:11:51.103Z,30.50
2022-08-17T04:12:51.377Z,29.90
2022-08-17T04:13:51.097Z,28.80
2022-08-17T04:14:53.286Z,28.40
2022-08-17T04:15:51.038Z,29.90
2022-08-17T04:16:51.027Z,29.70
2022-08-17T04:17:51.009Z,27.90
2022-08-17T04:18:50.997Z,29.70
2022-08-17T04:19:50.985Z,28.30
2022-08-17T04:20:50.968Z,28.40
2022-08-17T04:21:50.949Z,29.30
2022-08-17T04:22:51.158Z,28.50
2022-08-17T04:23:50.912Z,29.80
2022-08-17T04:24:50.901Z,28.90
2022-08-17T04:25:50.882Z,29.10
2022-08-17T04:26:52.810Z,28.30
2022-08-17T04:27:50.850Z,29.00
2022-08-17T04:28:50.839Z,30.00
2022-08-17T04:29:54.744Z,31.40
2022-08-17T04:30:50.805Z,30.30
2022-08-17T04:31:50.790Z,29.60
2022-08-17T04:33:04.895Z,30.60
2022-08-17T04:33:50.758Z,30.90
2022-08-17T04:34:50.744Z,30.60
2022-08-17T04:35:50.729Z,30.00
2022-08-17T04:36:50.710Z,29.70
2022-08-17T04:37:50.718Z,29.70
2022-08-17T04:38:50.680Z,30.50
2022-08-17T04:39:50.713Z,29.80
2022-08-17T04:40:50.687Z,29.20
2022-08-17T04:41:50.632Z,29.10
2022-08-17T04:42:50.723Z,28.50
2022-08-17T04:43:50.603Z,29.10
2022-08-17T04:44:50.585Z,29.30
2022-08-17T04:45:55.119Z,28.30
2022-08-17T04:46:50.551Z,27.50
2022-08-17T04:47:50.540Z,28.10
2022-08-17T04:48:50.524Z,29.00
2022-08-17T04:49:50.532Z,28.20
2022-08-17T04:50:50.489Z,27.80
2022-08-17T04:51:54.645Z,28.40
2022-08-17T04:52:50.459Z,28.00
2022-08-17T04:53:54.044Z,28.40
2022-08-17T04:54:50.429Z,28.60
2022-08-17T04:55:50.436Z,28.10
2022-08-17T04:56:50.400Z,29.30
2022-08-17T04:57:50.411Z,27.10
2022-08-17T04:58:50.386Z,29.20
2022-08-17T04:59:50.373Z,28.70
2022-08-17T05:00:50.440Z,28.30
2022-08-17T05:01:50.647Z,28.30
2022-08-17T05:02:50.880Z,28.40
2022-08-17T05:03:50.514Z,27.50
2022-08-17T05:04:50.295Z,29.00
2022-08-17T05:05:50.281Z,28.30
2022-08-17T05:06:50.237Z,29.20
2022-08-17T05:07:50.246Z,27.40
2022-08-17T05:09:50.192Z,28.00
2022-08-17T05:10:50.175Z,28.40
2022-08-17T05:11:50.192Z,29.70
2022-08-17T05:12:50.407Z,29.30
2022-08-17T05:14:50.113Z,28.70
2022-08-17T05:15:50.122Z,31.30
2022-08-17T05:16:50.281Z,28.40
2022-08-17T05:17:50.094Z,28.80
2022-08-17T05:18:50.054Z,30.30
2022-08-17T05:19:51.983Z,29.00
2022-08-17T05:20:50.044Z,31.80
2022-08-17T05:21:50.026Z,31.10
2022-08-17T05:22:50.199Z,31.70
2022-08-17T05:24:53.930Z,30.10
2022-08-17T05:25:50.416Z,29.80
2022-08-17T05:26:50.149Z,29.90
2022-08-17T05:27:50.108Z,30.80
2022-08-17T05:28:49.891Z,30.20
2022-08-17T05:29:50.208Z,31.60
2022-08-17T05:30:49.886Z,33.00
2022-08-17T05:31:50.074Z,32.10
2022-08-17T05:32:50.013Z,30.80
2022-08-17T05:33:49.813Z,31.70
2022-08-17T05:34:49.796Z,31.60
2022-08-17T05:35:49.813Z,32.50
2022-08-17T05:36:49.765Z,31.80
2022-08-17T05:37:49.784Z,32.30
2022-08-17T05:38:49.758Z,32.50
2022-08-17T05:39:49.798Z,32.50
2022-08-17T05:40:49.730Z,32.60
2022-08-17T05:41:49.718Z,32.20
2022-08-17T05:42:49.862Z,31.50
2022-08-17T05:43:54.311Z,31.30
2022-08-17T05:44:49.640Z,31.50
2022-08-17T05:45:55.430Z,31.00
2022-08-17T05:46:49.636Z,31.80
2022-08-17T05:47:49.621Z,32.20
2022-08-17T05:48:49.605Z,31.40
2022-08-17T05:49:49.595Z,31.80
2022-08-17T05:50:49.774Z,32.10
2022-08-17T05:51:49.528Z,32.00
2022-08-17T05:52:49.745Z,31.50
2022-08-17T05:53:49.497Z,31.10
2022-08-17T05:54:49.816Z,30.50
2022-08-17T05:55:49.465Z,31.10
2022-08-17T05:56:49.476Z,31.30
2022-08-17T05:57:53.834Z,31.20
2022-08-17T05:58:49.416Z,31.30
2022-08-17T05:59:49.436Z,30.80
2022-08-17T06:00:49.471Z,30.30
2022-08-17T06:01:49.405Z,30.80
2022-08-17T06:02:49.588Z,30.60
2022-08-17T06:03:49.339Z,31.00
2022-08-17T06:04:49.351Z,31.80
2022-08-17T06:05:49.342Z,31.30
2022-08-17T06:06:49.323Z,31.10
2022-08-17T06:07:49.281Z,30.40
2022-08-17T06:08:51.570Z,28.20
2022-08-17T06:09:49.275Z,30.50
2022-08-17T06:10:49.254Z,31.20
2022-08-17T06:11:53.686Z,30.90
2022-08-17T06:12:49.372Z,29.40
2022-08-17T06:13:49.215Z,29.10
2022-08-17T06:14:49.371Z,28.00
2022-08-17T06:15:49.184Z,28.10
2022-08-17T06:16:49.165Z,27.40
2022-08-17T06:17:49.122Z,26.90
2022-08-17T06:18:49.124Z,28.60
2022-08-17T06:19:49.121Z,27.50
2022-08-17T06:20:49.105Z,27.30
2022-08-17T06:21:49.119Z,28.10
2022-08-17T06:22:49.539Z,28.00
2022-08-17T06:23:49.029Z,28.10
2022-08-17T06:24:49.036Z,28.00
2022-08-17T06:25:49.025Z,28.10
2022-08-17T06:26:49.023Z,27.30
2022-08-17T06:27:48.992Z,27.40
2022-08-17T06:28:48.979Z,26.90
2022-08-17T06:29:48.932Z,26.10
2022-08-17T06:30:59.790Z,25.90
2022-08-17T06:31:48.931Z,25.40
2022-08-17T06:32:49.087Z,24.50
2022-08-17T06:33:48.935Z,23.90
2022-08-17T06:34:48.852Z,24.80
2022-08-17T06:35:48.879Z,23.80
2022-08-17T06:36:49.562Z,23.20
2022-08-17T06:37:48.891Z,23.50
2022-08-17T06:38:49.326Z,24.40
2022-08-17T06:39:49.077Z,23.00
2022-08-17T06:40:48.761Z,23.70
2022-08-17T06:41:49.045Z,24.70
2022-08-17T06:43:02.011Z,24.50
2022-08-17T06:43:49.047Z,25.30
2022-08-17T06:44:50.976Z,24.60
2022-08-17T06:45:48.712Z,25.00
2022-08-17T06:46:48.677Z,25.70
2022-08-17T06:47:48.987Z,24.50
2022-08-17T06:48:48.663Z,24.50
2022-08-17T06:49:54.661Z,24.90
2022-08-17T06:50:48.633Z,23.70
2022-08-17T06:51:48.615Z,24.90
2022-08-17T06:52:48.974Z,23.40
2022-08-17T06:53:48.588Z,24.30
2022-08-17T06:54:48.571Z,24.00
2022-08-17T06:55:48.549Z,22.70
2022-08-17T06:56:54.773Z,24.10
2022-08-17T06:57:48.493Z,22.40
2022-08-17T06:58:48.575Z,23.20
2022-08-17T06:59:55.244Z,23.20
2022-08-17T07:00:48.566Z,23.30
2022-08-17T07:01:48.430Z,22.90
2022-08-17T07:02:52.599Z,21.60
2022-08-17T07:03:48.399Z,21.80
2022-08-17T07:04:48.637Z,21.00
2022-08-17T07:05:48.444Z,21.10
2022-08-17T07:06:48.370Z,21.50
2022-08-17T07:07:48.379Z,20.80
2022-08-17T07:08:48.589Z,20.00
2022-08-17T07:09:48.349Z,19.50
2022-08-17T07:10:48.539Z,19.20
2022-08-17T07:11:48.302Z,19.40
2022-08-17T07:12:48.320Z,18.50
2022-08-17T07:13:50.526Z,19.60
2022-08-17T07:14:48.257Z,18.70
2022-08-17T07:16:48.237Z,18.80
2022-08-17T07:17:48.550Z,18.70
2022-08-17T07:18:48.272Z,19.80
2022-08-17T07:20:48.269Z,19.20
2022-08-17T07:21:48.141Z,19.60
2022-08-17T07:22:50.393Z,18.00
2022-08-17T07:23:48.457Z,18.20
2022-08-17T07:24:48.133Z,18.90
2022-08-17T07:25:48.103Z,17.60
2022-08-17T07:26:48.126Z,17.30
2022-08-17T07:27:48.069Z,16.90
2022-08-17T07:28:48.034Z,15.70
2022-08-17T07:29:48.299Z,14.40
2022-08-17T07:30:48.188Z,14.00
2022-08-17T07:31:48.384Z,15.10
2022-08-17T07:32:48.297Z,14.90
2022-08-17T07:33:47.957Z,14.60
2022-08-17T07:34:47.926Z,14.60
2022-08-17T07:35:47.956Z,13.90
2022-08-17T07:36:48.209Z,12.90
2022-08-17T07:37:48.511Z,12.80
2022-08-17T07:38:47.883Z,13.50
2022-08-17T07:40:15.442Z,12.60
2022-08-17T07:40:48.185Z,12.70
2022-08-17T07:41:53.409Z,12.00
2022-08-17T07:42:47.808Z,12.70
2022-08-17T07:43:47.787Z,12.40
2022-08-17T07:44:47.830Z,12.20
2022-08-17T07:46:48.070Z,12.70
2022-08-17T07:47:47.729Z,13.50
2022-08-17T07:48:47.750Z,13.60
2022-08-17T07:49:47.724Z,13.70
2022-08-17T07:50:49.728Z,12.70
2022-08-17T07:51:47.708Z,12.60
2022-08-17T07:52:51.603Z,12.60
2022-08-17T07:53:47.680Z,11.80
2022-08-17T07:54:47.654Z,11.70
2022-08-17T07:55:47.940Z,12.30
2022-08-17T07:56:48.003Z,12.00
2022-08-17T07:57:47.631Z,11.50
2022-08-17T07:58:47.755Z,11.30
2022-08-17T07:59:47.770Z,11.60
2022-08-17T08:00:47.525Z,11.50
2022-08-17T08:01:47.907Z,11.00
2022-08-17T08:02:47.523Z,11.30
2022-08-17T08:03:52.396Z,11.20
2022-08-17T08:05:50.029Z,11.40
2022-08-17T08:06:47.770Z,11.50
2022-08-17T08:07:47.418Z,11.00
2022-08-17T08:08:47.442Z,10.90
2022-08-17T08:09:47.709Z,11.30
2022-08-17T08:11:47.361Z,10.20
2022-08-17T08:12:47.675Z,10.10
2022-08-17T08:13:47.361Z,11.00
2022-08-17T08:14:47.340Z,10.40
2022-08-17T08:15:54.285Z,11.10
2022-08-17T08:16:47.284Z,10.90
2022-08-17T08:17:47.359Z,10.10
2022-08-17T08:18:55.813Z,11.70
2022-08-17T08:19:47.243Z,10.90
2022-08-17T08:20:52.674Z,11.30
2022-08-17T08:21:47.281Z,10.80
2022-08-17T08:22:47.194Z,11.10
2022-08-17T08:23:47.183Z,10.80
2022-08-17T08:24:47.169Z,11.00
2022-08-17T08:25:50.826Z,10.70
2022-08-17T08:26:47.140Z,10.70
2022-08-17T08:27:47.199Z,10.40
2022-08-17T08:28:47.109Z,10.00
2022-08-17T08:29:47.093Z,10.80
2022-08-17T08:30:47.078Z,10.80
2022-08-17T08:31:47.067Z,11.00
2022-08-17T08:32:47.061Z,11.50
2022-08-17T08:33:47.033Z,10.70
2022-08-17T08:35:02.314Z,10.90
2022-08-17T08:35:47.007Z,10.20
2022-08-17T08:37:15.844Z,9.80
2022-08-17T08:37:46.976Z,10.30
2022-08-17T08:38:46.960Z,10.30
2022-08-17T08:39:46.970Z,10.40
2022-08-17T08:40:46.930Z,9.60
2022-08-17T08:41:46.919Z,10.70
2022-08-17T08:42:46.901Z,9.90
2022-08-17T08:43:50.849Z,9.70
2022-08-17T08:45:03.993Z,9.80
2022-08-17T08:45:46.873Z,9.90
2022-08-17T08:46:46.842Z,10.10
2022-08-17T08:47:46.990Z,9.70
2022-08-17T08:48:55.977Z,9.20
2022-08-17T08:50:03.508Z,9.70
2022-08-17T08:50:46.784Z,9.10
2022-08-17T08:51:46.774Z,8.70
2022-08-17T08:52:46.759Z,8.90
2022-08-17T08:53:46.742Z,9.00
2022-08-17T08:54:46.727Z,9.60
2022-08-17T08:55:46.713Z,8.90
2022-08-17T08:57:19.152Z,8.70
2022-08-17T08:57:46.718Z,8.70
2022-08-17T08:58:46.665Z,8.20
2022-08-17T08:59:54.123Z,8.50
2022-08-17T09:00:46.646Z,8.70
2022-08-17T09:01:46.768Z,7.80
2022-08-17T09:02:46.710Z,7.90
2022-08-17T09:03:52.658Z,7.70
2022-08-17T09:05:12.800Z,7.70
2022-08-17T09:05:46.567Z,8.00
2022-08-17T09:06:46.676Z,7.90
2022-08-17T09:07:46.596Z,8.80
2022-08-17T09:08:46.525Z,8.20
2022-08-17T09:09:46.585Z,8.70
2022-08-17T09:10:46.543Z,7.90
2022-08-17T09:12:01.288Z,7.60
2022-08-17T09:12:46.545Z,7.60
2022-08-17T09:13:46.477Z,7.40
2022-08-17T09:14:47.477Z,6.90
2022-08-17T09:15:46.474Z,7.10
2022-08-17T09:16:46.473Z,6.80
2022-08-17T09:17:46.457Z,7.20
2022-08-17T09:18:59.923Z,7.50
2022-08-17T09:19:46.433Z,7.40
2022-08-17T09:20:50.018Z,8.10
2022-08-17T09:21:48.661Z,8.00
2022-08-17T09:22:46.415Z,7.70
2022-08-17T09:23:46.421Z,7.40
2022-08-17T09:24:46.370Z,7.90
2022-08-17T09:25:46.352Z,7.50
2022-08-17T09:26:46.649Z,7.20
2022-08-17T09:27:46.357Z,7.60
2022-08-17T09:28:46.289Z,7.90
2022-08-17T09:29:46.263Z,7.30
2022-08-17T09:30:46.259Z,7.10
2022-08-17T09:31:49.043Z,6.50
2022-08-17T09:32:46.225Z,6.10
2022-08-17T09:33:46.234Z,6.30
2022-08-17T09:34:47.026Z,6.70
2022-08-17T09:35:46.190Z,6.90
2022-08-17T09:36:46.190Z,5.90
2022-08-17T09:37:46.195Z,6.00
2022-08-17T09:38:46.163Z,5.40
2022-08-17T09:39:46.200Z,5.60
2022-08-17T09:40:46.143Z,5.60
2022-08-17T09:41:49.219Z,5.60
2022-08-17T09:42:46.099Z,5.70
2022-08-17T09:43:46.071Z,5.90
2022-08-17T09:44:46.057Z,5.60
2022-08-17T09:45:46.027Z,5.70
2022-08-17T09:46:45.994Z,5.10
2022-08-17T09:47:46.041Z,5.90
2022-08-17T09:48:46.005Z,5.90
2022-08-17T09:49:45.939Z,7.00
2022-08-17T09:51:05.014Z,5.70
2022-08-17T09:51:45.907Z,5.90
2022-08-17T09:52:45.895Z,5.90
2022-08-17T09:53:45.881Z,5.80
2022-08-17T09:54:45.863Z,6.00
2022-08-17T09:55:45.852Z,6.00
2022-08-17T09:56:50.194Z,6.20
2022-08-17T09:57:45.825Z,6.40
2022-08-17T09:58:45.808Z,5.50
2022-08-17T09:59:45.793Z,5.80
2022-08-17T10:00:45.818Z,6.30
2022-08-17T10:01:45.852Z,6.30
2022-08-17T10:02:45.758Z,6.00
2022-08-17T10:03:45.739Z,6.60
2022-08-17T10:04:45.725Z,6.10
2022-08-17T10:05:45.747Z,5.90
2022-08-17T10:06:45.729Z,5.80
2022-08-17T10:07:45.716Z,6.40
2022-08-17T10:08:45.667Z,6.60
2022-08-17T10:09:45.682Z,6.90
2022-08-17T10:10:52.417Z,6.60
2022-08-17T10:11:45.736Z,6.30
2022-08-17T10:13:53.025Z,6.10
2022-08-17T10:14:46.341Z,6.60
2022-08-17T10:15:45.607Z,6.10
2022-08-17T10:17:45.544Z,6.00
2022-08-17T10:18:45.526Z,6.00
2022-08-17T10:19:45.717Z,6.00
2022-08-17T10:20:45.501Z,6.20
2022-08-17T10:21:45.489Z,6.60
2022-08-17T10:22:48.778Z,5.90
2022-08-17T10:23:45.460Z,6.00
2022-08-17T10:25:21.436Z,6.40
2022-08-17T10:25:56.491Z,5.90
2022-08-17T10:26:56.863Z,6.10
2022-08-17T10:27:45.448Z,6.30
2022-08-17T10:28:45.391Z,5.60
2022-08-17T10:29:49.005Z,6.40
2022-08-17T10:30:45.361Z,6.60
2022-08-17T10:31:45.421Z,5.90
2022-08-17T10:32:45.337Z,6.20
2022-08-17T10:33:45.322Z,6.00
2022-08-17T10:34:45.332Z,6.10
2022-08-17T10:35:45.329Z,6.40
2022-08-17T10:36:45.280Z,5.70
2022-08-17T10:37:45.306Z,6.60
2022-08-17T10:39:50.446Z,5.80
2022-08-17T10:40:45.234Z,6.60
2022-08-17T10:41:45.550Z,5.70
2022-08-17T10:42:45.230Z,5.90
2022-08-17T10:44:37.158Z,6.00
2022-08-17T10:44:45.405Z,6.30
2022-08-17T10:45:45.193Z,6.10
2022-08-17T10:46:45.376Z,6.10
2022-08-17T10:47:55.179Z,6.50
2022-08-17T10:48:45.399Z,6.30
2022-08-17T10:49:45.445Z,6.30
2022-08-17T10:50:45.169Z,6.00
2022-08-17T10:51:45.308Z,6.40
2022-08-17T10:52:45.061Z,6.00
2022-08-17T10:53:45.049Z,6.30
2022-08-17T10:54:45.032Z,6.40
2022-08-17T10:55:45.054Z,6.00
2022-08-17T10:56:45.036Z,6.50
2022-08-17T10:57:45.011Z,6.30
2022-08-17T10:58:44.979Z,6.80
2022-08-17T10:59:44.996Z,6.20
2022-08-17T11:01:44.963Z,7.20
2022-08-17T11:02:44.929Z,6.70
2022-08-17T11:03:45.145Z,6.50
2022-08-17T11:04:44.928Z,6.30
2022-08-17T11:05:44.883Z,6.50
2022-08-17T11:06:44.871Z,6.50
2022-08-17T11:07:45.360Z,6.60
2022-08-17T11:08:45.128Z,6.70
2022-08-17T11:09:44.857Z,6.10
2022-08-17T11:10:48.593Z,6.40
2022-08-17T11:13:44.774Z,6.00
2022-08-17T11:15:44.982Z,6.10
2022-08-17T11:16:45.016Z,6.10
2022-08-17T11:17:45.058Z,6.20
2022-08-17T11:18:44.771Z,6.00
2022-08-17T11:19:44.723Z,6.10
2022-08-17T11:20:44.680Z,5.90
2022-08-17T11:22:44.703Z,5.70
2022-08-17T11:23:44.669Z,6.20
2022-08-17T11:24:45.487Z,6.20
2022-08-17T11:25:44.942Z,6.30
2022-08-17T11:26:44.933Z,5.90
2022-08-17T11:27:44.610Z,5.70
2022-08-17T11:28:44.573Z,6.00
2022-08-17T11:29:44.584Z,5.80
2022-08-17T11:30:44.554Z,5.50
2022-08-17T11:31:44.685Z,5.90
2022-08-17T11:32:47.163Z,6.60
2022-08-17T11:33:44.529Z,6.10
2022-08-17T11:35:44.477Z,6.60
2022-08-17T11:36:44.532Z,6.00
2022-08-17T11:37:44.455Z,6.50
2022-08-17T11:38:44.436Z,6.10
2022-08-17T11:39:44.807Z,6.30
2022-08-17T11:40:44.414Z,6.40
2022-08-17T11:41:44.396Z,6.60
2022-08-17T11:42:44.457Z,6.30
2022-08-17T11:43:44.700Z,6.30
2022-08-17T11:44:44.480Z,5.90
2022-08-17T11:45:44.374Z,6.10
2022-08-17T11:46:44.359Z,6.30
2022-08-17T11:47:56.939Z,6.40
2022-08-17T11:48:44.304Z,6.80
2022-08-17T11:49:44.408Z,6.60
2022-08-17T11:50:44.298Z,6.50
2022-08-17T11:51:44.297Z,6.30
2022-08-17T11:52:46.790Z,6.60
2022-08-17T11:53:44.234Z,6.30
2022-08-17T11:54:44.217Z,6.80
2022-08-17T11:55:45.068Z,6.40
2022-08-17T11:56:44.191Z,6.50
2022-08-17T11:57:44.207Z,6.40
2022-08-17T11:58:44.161Z,6.70
2022-08-17T11:59:44.181Z,7.00
2022-08-17T12:00:44.164Z,6.60
2022-08-17T12:01:44.124Z,6.40
2022-08-17T12:02:47.870Z,6.50
2022-08-17T12:04:44.129Z,6.10
2022-08-17T12:05:44.067Z,6.00
2022-08-17T12:06:44.057Z,6.50
2022-08-17T12:07:44.122Z,6.20
2022-08-17T12:08:44.057Z,5.80
2022-08-17T12:09:44.015Z,5.80
2022-08-17T12:10:44.002Z,5.90
2022-08-17T12:12:11.317Z,6.80
2022-08-17T12:12:43.976Z,6.70
2022-08-17T12:13:43.974Z,6.40
2022-08-17T12:15:10.071Z,6.20
2022-08-17T12:15:43.975Z,6.10
2022-08-17T12:16:43.929Z,6.50
2022-08-17T12:17:43.907Z,7.00
2022-08-17T12:18:43.904Z,7.40
2022-08-17T12:19:43.916Z,6.90
2022-08-17T12:20:43.867Z,6.50
2022-08-17T12:21:43.910Z,7.00
2022-08-17T12:22:43.902Z,6.10
2022-08-17T12:23:44.193Z,6.60
2022-08-17T12:24:43.925Z,6.40
2022-08-17T12:25:43.849Z,6.20
2022-08-17T12:26:43.834Z,6.20
2022-08-17T12:28:04.632Z,6.40
2022-08-17T12:28:43.817Z,6.20
2022-08-17T12:29:43.786Z,6.70
2022-08-17T12:30:43.781Z,6.30
2022-08-17T12:31:43.749Z,6.70
2022-08-17T12:32:43.895Z,7.30
2022-08-17T12:33:43.692Z,7.40
2022-08-17T12:34:43.685Z,7.00
2022-08-17T12:35:43.666Z,7.40
2022-08-17T12:36:43.651Z,6.50
2022-08-17T12:37:43.724Z,6.80
2022-08-17T12:38:43.628Z,6.30
2022-08-17T12:39:43.635Z,5.90
2022-08-17T12:40:43.595Z,5.80
2022-08-17T12:41:43.581Z,6.30
2022-08-17T12:42:43.569Z,5.50
2022-08-17T12:43:43.557Z,5.60
2022-08-17T12:44:50.460Z,6.30
2022-08-17T12:45:43.535Z,6.10
2022-08-17T12:46:43.722Z,5.50
2022-08-17T12:47:43.622Z,5.70
2022-08-17T12:48:59.189Z,6.30
2022-08-17T12:49:43.471Z,6.60
2022-08-17T12:50:43.460Z,6.10
2022-08-17T12:51:43.451Z,5.90
2022-08-17T12:52:43.441Z,5.80
2022-08-17T12:53:43.422Z,6.00
2022-08-17T12:54:43.405Z,6.40
2022-08-17T12:55:43.390Z,5.90
2022-08-17T12:56:43.389Z,5.70
2022-08-17T12:57:43.451Z,5.80
2022-08-17T12:58:43.372Z,6.10
2022-08-17T12:59:43.354Z,5.60
2022-08-17T13:00:47.409Z,5.30
2022-08-17T13:01:43.366Z,6.80
2022-08-17T13:02:43.322Z,5.90
2022-08-17T13:03:43.360Z,6.30
2022-08-17T13:04:43.282Z,6.30
2022-08-17T13:05:43.276Z,6.20
2022-08-17T13:06:43.261Z,5.80
2022-08-17T13:07:43.367Z,6.00
2022-08-17T13:08:43.229Z,5.90
2022-08-17T13:09:43.215Z,6.00
2022-08-17T13:10:43.217Z,6.50
2022-08-17T13:11:43.194Z,5.80
2022-08-17T13:12:43.214Z,6.00
2022-08-17T13:13:43.153Z,6.10
2022-08-17T13:14:43.142Z,6.20
2022-08-17T13:15:44.975Z,5.80
2022-08-17T13:16:43.114Z,6.10
2022-08-17T13:17:43.099Z,5.90
2022-08-17T13:18:43.084Z,6.20
2022-08-17T13:19:43.069Z,5.20